createdAt,value
2023-04-13T00:00:13.271Z,1.77
2023-04-13T00:02:40.488Z,2.13
2023-04-13T00:05:11.919Z,2.43
2023-04-13T00:07:39.240Z,1.90
2023-04-13T00:10:08.644Z,1.60
2023-04-13T00:12:36.374Z,2.33
2023-04-13T00:15:06.590Z,1.30
2023-04-13T00:17:33.677Z,1.77
2023-04-13T00:20:01.628Z,2.67
2023-04-13T00:22:28.635Z,1.80
2023-04-13T00:24:55.776Z,1.23
2023-04-13T00:27:23.497Z,2.05
2023-04-13T00:29:50.549Z,1.10
2023-04-13T00:32:17.857Z,1.60
2023-04-13T00:34:45.928Z,1.37
2023-04-13T00:37:14.610Z,1.90
2023-04-13T00:39:43.342Z,2.13
2023-04-13T00:42:10.354Z,1.20
2023-04-13T00:44:37.731Z,2.03
2023-04-13T00:47:05.174Z,0.87
2023-04-13T00:49:33.423Z,1.47
2023-04-13T00:52:02.007Z,1.60
2023-04-13T00:54:29.373Z,2.50
2023-04-13T00:56:58.756Z,1.30
2023-04-13T00:59:30.213Z,1.10
2023-04-13T01:01:57.433Z,1.75
2023-04-13T01:04:25.631Z,1.83
2023-04-13T01:06:58.618Z,1.83
2023-04-13T01:09:31.676Z,4.00
2023-04-13T01:12:04.192Z,2.00
2023-04-13T01:14:31.279Z,1.13
2023-04-13T01:17:02.428Z,1.47
2023-04-13T01:19:40.907Z,1.13
2023-04-13T01:22:08.971Z,1.97
2023-04-13T01:24:53.614Z,1.97
2023-04-13T01:27:42.275Z,1.50
2023-04-13T01:30:10.776Z,2.03
2023-04-13T01:32:39.093Z,1.57
2023-04-13T01:35:10.412Z,1.40
2023-04-13T01:37:38.390Z,1.20
2023-04-13T01:40:12.853Z,1.80
2023-04-13T01:42:40.340Z,3.23
2023-04-13T01:45:10.729Z,2.60
2023-04-13T01:47:40.037Z,4.33
2023-04-13T01:50:33.265Z,1.53
2023-04-13T01:53:07.875Z,2.20
2023-04-13T01:55:39.779Z,1.87
2023-04-13T01:58:07.620Z,2.50
2023-04-13T02:00:38.104Z,2.47
2023-04-13T02:03:06.310Z,3.83
2023-04-13T02:05:35.443Z,1.87
2023-04-13T02:08:03.765Z,3.07
2023-04-13T02:10:31.368Z,1.20
2023-04-13T02:12:58.642Z,1.43
2023-04-13T02:15:26.670Z,1.20
2023-04-13T02:17:54.155Z,2.00
2023-04-13T02:20:21.595Z,1.47
2023-04-13T02:22:48.889Z,2.13
2023-04-13T02:25:17.238Z,2.23
2023-04-13T02:27:44.290Z,2.47
2023-04-13T02:30:11.601Z,2.23
2023-04-13T02:32:41.244Z,3.00
2023-04-13T02:35:11.882Z,1.53
2023-04-13T02:37:40.152Z,2.10
2023-04-13T02:40:09.250Z,1.83
2023-04-13T02:42:36.976Z,1.17
2023-04-13T02:45:04.394Z,1.20
2023-04-13T02:47:32.080Z,4.47
2023-04-13T02:49:59.110Z,4.17
2023-04-13T02:52:26.098Z,2.07
2023-04-13T02:54:54.677Z,4.00
2023-04-13T02:57:22.434Z,1.90
2023-04-13T02:59:49.981Z,1.10
2023-04-13T03:02:17.275Z,2.90
2023-04-13T03:04:45.371Z,1.30
2023-04-13T03:07:14.577Z,6.33
2023-04-13T03:09:42.721Z,2.57
2023-04-13T03:12:09.818Z,2.17
2023-04-13T03:14:37.064Z,1.30
2023-04-13T03:17:04.999Z,3.03
2023-04-13T03:19:32.509Z,2.10
2023-04-13T03:21:59.590Z,2.17
2023-04-13T03:24:27.389Z,1.70
2023-04-13T03:26:57.892Z,3.10
2023-04-13T03:29:25.131Z,2.70
2023-04-13T03:31:52.308Z,3.17
2023-04-13T03:34:19.615Z,3.70
2023-04-13T03:36:46.727Z,1.63
2023-04-13T03:39:13.728Z,2.00
2023-04-13T03:41:40.988Z,2.13
2023-04-13T03:44:08.476Z,3.07
2023-04-13T03:46:37.442Z,2.03
2023-04-13T03:49:08.601Z,1.93
2023-04-13T03:51:36.077Z,3.23
2023-04-13T03:54:03.399Z,2.53
2023-04-13T03:56:30.992Z,3.20
2023-04-13T03:58:58.051Z,9.87
2023-04-13T04:01:25.236Z,21.77
2023-04-13T04:03:55.878Z,16.00
2023-04-13T04:06:23.580Z,3.30
2023-04-13T04:08:51.304Z,2.30
2023-04-13T04:11:18.425Z,2.17
2023-04-13T04:13:45.483Z,2.83
2023-04-13T04:16:12.535Z,3.00
2023-04-13T04:18:39.605Z,1.90
2023-04-13T04:21:06.846Z,2.97
2023-04-13T04:23:37.900Z,3.17
2023-04-13T04:26:05.350Z,2.07
2023-04-13T04:28:38.276Z,2.70
2023-04-13T04:31:07.048Z,2.90
2023-04-13T04:33:34.088Z,1.43
2023-04-13T04:36:01.589Z,5.83
2023-04-13T04:38:30.376Z,4.37
2023-04-13T04:40:59.379Z,3.40
2023-04-13T04:43:27.210Z,3.70
2023-04-13T04:45:57.499Z,4.40
2023-04-13T04:48:31.422Z,2.30
2023-04-13T04:50:59.860Z,6.67
2023-04-13T04:53:27.134Z,6.13
2023-04-13T04:55:54.168Z,4.13
2023-04-13T04:58:21.619Z,5.47
2023-04-13T05:00:49.627Z,6.60
2023-04-13T05:03:16.819Z,4.40
2023-04-13T05:05:44.120Z,7.03
2023-04-13T05:08:11.704Z,4.37
2023-04-13T05:10:43.786Z,2.60
2023-04-13T05:13:10.780Z,2.43
2023-04-13T05:15:37.779Z,3.70
2023-04-13T05:18:05.967Z,5.57
2023-04-13T05:20:34.539Z,5.00
2023-04-13T05:23:01.627Z,3.90
2023-04-13T05:25:28.900Z,5.27
2023-04-13T05:27:56.125Z,5.03
2023-04-13T05:30:23.001Z,3.33
2023-04-13T05:32:49.611Z,6.63
2023-04-13T05:35:16.232Z,3.10
2023-04-13T05:37:44.459Z,4.47
2023-04-13T05:40:14.023Z,4.30
2023-04-13T05:42:43.637Z,3.30
2023-04-13T05:45:10.700Z,5.13
2023-04-13T05:47:38.738Z,5.87
2023-04-13T05:50:06.529Z,5.00
2023-04-13T05:52:33.549Z,2.23
2023-04-13T05:55:01.109Z,3.17
2023-04-13T05:57:28.121Z,5.53
2023-04-13T05:59:56.212Z,5.93
2023-04-13T06:02:26.357Z,3.60
2023-04-13T06:04:54.770Z,3.57
2023-04-13T06:07:22.777Z,6.87
2023-04-13T06:09:49.800Z,8.17
2023-04-13T06:12:18.204Z,5.67
2023-04-13T06:14:45.370Z,3.13
2023-04-13T06:17:12.390Z,5.07
2023-04-13T06:19:39.383Z,2.87
2023-04-13T06:22:06.930Z,4.60
2023-04-13T06:24:33.953Z,5.93
2023-04-13T06:27:00.553Z,1.77
2023-04-13T06:29:27.155Z,4.37
2023-04-13T06:31:54.501Z,3.30
2023-04-13T06:34:21.057Z,3.70
2023-04-13T06:36:47.956Z,5.85
2023-04-13T06:39:15.245Z,4.70
2023-04-13T06:41:41.792Z,3.93
2023-04-13T06:44:08.661Z,3.03
2023-04-13T06:46:35.443Z,6.80
2023-04-13T06:49:02.502Z,6.47
2023-04-13T06:51:29.016Z,6.07
2023-04-13T06:53:55.654Z,4.37
2023-04-13T06:56:22.421Z,4.67
2023-04-13T06:58:48.939Z,3.73
2023-04-13T07:01:16.109Z,7.43
2023-04-13T07:03:43.729Z,7.17
2023-04-13T07:06:10.515Z,5.00
2023-04-13T07:08:37.239Z,6.43
2023-04-13T07:11:03.859Z,3.92
2023-04-13T07:13:30.417Z,3.27
2023-04-13T07:15:56.989Z,4.67
2023-04-13T07:18:23.558Z,5.47
2023-04-13T07:20:50.102Z,4.40
2023-04-13T07:23:16.901Z,4.83
2023-04-13T07:25:44.450Z,5.13
2023-04-13T07:28:10.987Z,7.07
2023-04-13T07:30:37.565Z,5.40
2023-04-13T07:33:04.218Z,2.40
2023-04-13T07:35:30.912Z,3.47
2023-04-13T07:37:57.474Z,5.30
2023-04-13T07:40:24.051Z,7.73
2023-04-13T07:42:50.718Z,5.90
2023-04-13T07:45:17.949Z,4.17
2023-04-13T07:47:44.543Z,4.97
2023-04-13T07:50:11.761Z,4.77
2023-04-13T07:52:38.279Z,6.87
2023-04-13T07:55:05.842Z,5.33
2023-04-13T07:57:35.155Z,6.93
2023-04-13T08:00:02.270Z,5.00
2023-04-13T08:02:29.190Z,5.30
2023-04-13T08:04:55.947Z,4.03
2023-04-13T08:07:23.095Z,3.67
2023-04-13T08:09:52.326Z,3.87
2023-04-13T08:12:19.191Z,4.07
2023-04-13T08:14:46.169Z,5.03
2023-04-13T08:17:12.739Z,5.00
2023-04-13T08:19:39.484Z,6.23
2023-04-13T08:22:06.110Z,5.43
2023-04-13T08:24:32.740Z,5.65
2023-04-13T08:26:59.292Z,8.67
2023-04-13T08:29:26.358Z,5.20
2023-04-13T08:31:53.271Z,5.03
2023-04-13T08:34:20.331Z,9.67
2023-04-13T08:36:47.580Z,6.67
2023-04-13T08:39:14.796Z,4.10
2023-04-13T08:41:46.130Z,3.80
2023-04-13T08:44:14.443Z,7.67
2023-04-13T08:46:44.400Z,3.73
2023-04-13T08:49:11.739Z,3.50
2023-04-13T08:51:39.023Z,4.47
2023-04-13T08:54:06.980Z,4.70
2023-04-13T08:56:45.286Z,3.73
2023-04-13T08:59:15.422Z,5.70
2023-04-13T09:01:46.536Z,9.60
2023-04-13T09:04:17.847Z,5.25
2023-04-13T09:06:47.802Z,7.13
2023-04-13T09:09:14.960Z,6.97
2023-04-13T09:11:43.369Z,5.73
2023-04-13T09:14:10.414Z,4.50
2023-04-13T09:16:41.910Z,7.57
2023-04-13T09:19:09.457Z,6.53
2023-04-13T09:21:40.674Z,6.93
2023-04-13T09:24:08.335Z,4.50
2023-04-13T09:26:45.668Z,7.33
2023-04-13T09:29:17.576Z,2.67
2023-04-13T09:31:45.954Z,4.23
2023-04-13T09:34:13.638Z,7.00
2023-04-13T09:36:53.331Z,8.30
2023-04-13T09:39:27.898Z,6.27
2023-04-13T09:41:55.270Z,4.00
2023-04-13T09:44:28.329Z,7.80
2023-04-13T09:47:03.402Z,4.67
2023-04-13T09:49:43.322Z,4.30
2023-04-13T09:52:23.465Z,3.73
2023-04-13T09:54:58.791Z,5.17
2023-04-13T09:57:30.171Z,8.17
2023-04-13T10:00:00.421Z,9.17
2023-04-13T10:02:28.011Z,4.17
2023-04-13T10:04:55.770Z,7.13
2023-04-13T10:07:26.735Z,6.80
2023-04-13T10:09:54.027Z,5.30
2023-04-13T10:12:20.675Z,8.60
2023-04-13T10:14:49.357Z,7.73
2023-04-13T10:17:43.567Z,7.17
2023-04-13T10:20:13.530Z,4.88
2023-04-13T10:22:43.670Z,8.43
2023-04-13T10:25:29.021Z,7.87
2023-04-13T10:27:59.780Z,6.83
2023-04-13T10:30:26.978Z,5.63
2023-04-13T10:33:09.631Z,6.80
2023-04-13T10:35:37.633Z,4.73
2023-04-13T10:38:05.179Z,4.47
2023-04-13T10:40:52.119Z,6.50
2023-04-13T10:43:32.156Z,5.80
2023-04-13T10:46:05.756Z,8.27
2023-04-13T10:48:32.891Z,5.17
2023-04-13T10:51:00.335Z,10.03
2023-04-13T10:53:30.259Z,7.07
2023-04-13T10:55:57.801Z,8.77
2023-04-13T10:58:25.246Z,11.70
2023-04-13T11:00:52.141Z,8.67
2023-04-13T11:03:19.208Z,7.23
2023-04-13T11:05:47.455Z,5.63
2023-04-13T11:08:20.739Z,4.63
2023-04-13T11:10:52.414Z,9.03
2023-04-13T11:13:19.202Z,6.87
2023-04-13T11:15:46.592Z,7.87
2023-04-13T11:18:13.276Z,5.63
2023-04-13T11:20:41.716Z,7.27
2023-04-13T11:23:18.558Z,9.30
2023-04-13T11:25:59.789Z,7.27
2023-04-13T11:28:40.685Z,8.57
2023-04-13T11:31:08.066Z,7.10
2023-04-13T11:33:37.215Z,8.97
2023-04-13T11:36:06.730Z,6.97
2023-04-13T11:38:33.351Z,9.47
2023-04-13T11:41:15.751Z,7.27
2023-04-13T11:43:46.396Z,6.53
2023-04-13T11:46:15.947Z,6.10
2023-04-13T11:48:43.371Z,6.43
2023-04-13T11:51:11.245Z,6.80
2023-04-13T11:53:39.328Z,5.53
2023-04-13T11:56:06.816Z,4.40
2023-04-13T11:58:33.403Z,4.43
2023-04-13T12:03:47.659Z,4.90
2023-04-13T12:06:23.192Z,7.27
2023-04-13T12:08:56.219Z,5.70
2023-04-13T12:11:41.127Z,4.37
2023-04-13T12:14:47.020Z,5.23
2023-04-13T12:17:34.682Z,4.20
2023-04-13T12:20:00.626Z,4.30
2023-04-13T12:22:52.465Z,10.13
2023-04-13T12:25:24.207Z,2.67
2023-04-13T12:27:53.269Z,3.57
2023-04-13T12:30:21.656Z,1.57
2023-04-13T12:32:51.489Z,3.30
2023-04-13T12:35:21.496Z,4.13
2023-04-13T12:37:50.039Z,2.67
2023-04-13T12:40:18.387Z,4.23
2023-04-13T12:42:46.534Z,3.33
2023-04-13T12:45:14.040Z,3.97
2023-04-13T12:47:41.560Z,3.50
2023-04-13T12:50:09.906Z,4.37
2023-04-13T12:52:40.699Z,4.60
2023-04-13T12:55:07.903Z,3.83
2023-04-13T12:57:34.767Z,2.90
2023-04-13T13:00:01.349Z,3.33
2023-04-13T13:02:30.919Z,2.57
2023-04-13T13:04:58.989Z,3.60
2023-04-13T13:07:25.663Z,2.83
2023-04-13T13:09:52.267Z,2.83
2023-04-13T13:12:18.898Z,4.27
2023-04-13T13:14:45.450Z,3.73
2023-04-13T13:17:12.027Z,4.23
2023-04-13T13:19:38.665Z,3.37
2023-04-13T13:22:05.216Z,4.93
2023-04-13T13:24:31.808Z,3.03
2023-04-13T13:29:33.010Z,3.43
2023-04-13T13:32:00.358Z,4.53
2023-04-13T13:34:27.122Z,5.73
2023-04-13T13:36:54.007Z,3.00
2023-04-13T13:39:22.288Z,4.83
2023-04-13T13:41:49.447Z,2.37
2023-04-13T13:44:16.632Z,4.83
2023-04-13T13:46:43.632Z,4.00
2023-04-13T13:49:11.721Z,3.83
2023-04-13T13:51:38.278Z,3.53
2023-04-13T13:54:04.976Z,2.97
2023-04-13T13:56:31.531Z,4.03
2023-04-13T13:58:58.905Z,2.40
2023-04-13T14:01:25.804Z,2.97
2023-04-13T14:03:53.329Z,2.90
2023-04-13T14:06:20.326Z,3.50
2023-04-13T14:08:46.949Z,4.80
2023-04-13T14:11:13.516Z,4.20
2023-04-13T14:13:40.149Z,3.27
2023-04-13T14:16:07.265Z,4.07
2023-04-13T14:18:33.854Z,2.77
2023-04-13T14:21:00.482Z,3.80
2023-04-13T14:23:27.144Z,3.50
2023-04-13T14:25:53.731Z,3.17
2023-04-13T14:28:20.244Z,6.20
2023-04-13T14:30:46.858Z,3.33
2023-04-13T14:33:14.608Z,7.33
2023-04-13T14:35:41.213Z,3.92
2023-04-13T14:38:11.400Z,3.53
2023-04-13T14:40:38.134Z,2.10
2023-04-13T14:43:04.721Z,3.70
2023-04-13T14:45:31.979Z,1.93
2023-04-13T14:47:58.624Z,2.80
2023-04-13T14:50:25.421Z,2.50
2023-04-13T14:52:52.322Z,1.33
2023-04-13T14:55:19.225Z,3.07
2023-04-13T14:57:45.919Z,3.77
2023-04-13T15:00:25.887Z,3.90
2023-04-13T15:02:53.428Z,3.13
2023-04-13T15:05:20.599Z,3.17
2023-04-13T15:07:48.343Z,8.40
2023-04-13T15:10:14.940Z,10.33
2023-04-13T15:12:41.884Z,8.90
2023-04-13T15:15:09.188Z,2.20
2023-04-13T15:17:35.832Z,5.70
2023-04-13T15:20:02.654Z,5.73
2023-04-13T15:22:30.879Z,4.63
2023-04-13T15:24:57.450Z,4.53
2023-04-13T15:27:26.599Z,6.47
2023-04-13T15:29:58.752Z,4.47
2023-04-13T15:32:25.705Z,5.40
2023-04-13T15:34:53.659Z,10.67
2023-04-13T15:37:20.478Z,6.47
2023-04-13T15:39:47.039Z,5.80
2023-04-13T15:42:14.404Z,3.63
2023-04-13T15:44:40.919Z,5.03
2023-04-13T15:47:07.533Z,6.10
2023-04-13T15:49:34.085Z,3.13
2023-04-13T15:52:00.643Z,4.87
2023-04-13T15:54:27.165Z,3.53
2023-04-13T15:56:53.683Z,5.93
2023-04-13T15:59:20.384Z,5.97
2023-04-13T16:01:48.899Z,6.97
2023-04-13T16:04:16.200Z,2.73
2023-04-13T16:06:42.922Z,4.67
2023-04-13T16:09:09.889Z,4.63
2023-04-13T16:11:40.448Z,5.00
2023-04-13T16:14:07.751Z,2.67
2023-04-13T16:16:46.977Z,3.10
2023-04-13T16:19:17.922Z,2.97
2023-04-13T16:21:45.859Z,3.70
2023-04-13T16:24:12.653Z,3.97
2023-04-13T16:26:39.640Z,3.40
2023-04-13T16:29:07.920Z,5.60
2023-04-13T16:31:34.539Z,4.50
2023-04-13T16:34:04.875Z,5.97
2023-04-13T16:36:35.709Z,5.27
2023-04-13T16:39:11.978Z,8.63
2023-04-13T16:41:39.691Z,5.63
2023-04-13T16:44:06.274Z,6.70
2023-04-13T16:46:32.929Z,4.37
2023-04-13T16:48:59.837Z,5.97
2023-04-13T16:51:27.137Z,5.77
2023-04-13T16:53:54.308Z,8.33
2023-04-13T16:56:22.221Z,4.20
2023-04-13T16:58:49.914Z,7.60
2023-04-13T17:01:16.521Z,5.13
2023-04-13T17:03:43.218Z,5.68
2023-04-13T17:06:09.831Z,6.73
2023-04-13T17:08:36.373Z,6.17
2023-04-13T17:11:04.607Z,3.10
2023-04-13T17:13:31.453Z,3.90
2023-04-13T17:15:58.031Z,3.83
2023-04-13T17:18:24.688Z,5.37
2023-04-13T17:20:55.655Z,5.63
2023-04-13T17:23:23.361Z,5.10
2023-04-13T17:25:52.655Z,5.53
2023-04-13T17:28:21.815Z,5.27
2023-04-13T17:30:48.810Z,4.57
2023-04-13T17:33:16.691Z,8.47
2023-04-13T17:35:43.263Z,6.23
2023-04-13T17:38:09.846Z,8.87
2023-04-13T17:40:36.457Z,8.97
2023-04-13T17:43:03.056Z,5.40
2023-04-13T17:45:29.608Z,5.97
2023-04-13T17:47:56.401Z,6.50
2023-04-13T17:50:22.986Z,5.23
2023-04-13T17:52:49.508Z,6.80
2023-04-13T17:55:16.188Z,4.93
2023-04-13T17:57:42.739Z,5.00
2023-04-13T18:00:10.526Z,6.00
2023-04-13T18:02:39.300Z,5.50
2023-04-13T18:05:07.166Z,4.20
2023-04-13T18:07:33.776Z,5.47
2023-04-13T18:10:00.457Z,5.33
2023-04-13T18:12:27.097Z,5.87
2023-04-13T18:14:53.844Z,5.30
2023-04-13T18:17:21.500Z,5.47
2023-04-13T18:19:54.310Z,8.23
2023-04-13T18:22:21.525Z,5.50
2023-04-13T18:24:48.146Z,5.53
2023-04-13T18:27:17.334Z,5.67
2023-04-13T18:29:44.407Z,4.97
2023-04-13T18:32:11.492Z,5.00
2023-04-13T18:34:39.976Z,6.63
2023-04-13T18:37:06.998Z,6.47
2023-04-13T18:39:33.949Z,5.63
2023-04-13T18:42:00.926Z,6.90
2023-04-13T18:44:30.188Z,5.45
2023-04-13T18:46:57.177Z,4.60
2023-04-13T18:49:24.229Z,5.43
2023-04-13T18:51:51.176Z,6.37
2023-04-13T18:54:18.148Z,6.27
2023-04-13T18:56:45.646Z,5.07
2023-04-13T18:59:12.648Z,7.23
2023-04-13T19:01:39.686Z,5.27
2023-04-13T19:04:06.965Z,5.30
2023-04-13T19:06:36.139Z,3.83
2023-04-13T19:09:04.510Z,6.27
2023-04-13T19:11:44.768Z,6.20
2023-04-13T19:14:11.734Z,7.43
2023-04-13T19:16:38.767Z,6.77
2023-04-13T19:19:05.953Z,7.87
2023-04-13T19:21:33.010Z,12.17
2023-04-13T19:24:00.164Z,12.77
2023-04-13T19:26:27.487Z,8.47
2023-04-13T19:28:57.312Z,5.03
2023-04-13T19:31:24.392Z,5.03
2023-04-13T19:33:52.585Z,6.30
2023-04-13T19:36:19.822Z,7.40
2023-04-13T19:38:47.045Z,5.23
2023-04-13T19:41:14.146Z,4.53
2023-04-13T19:43:41.221Z,6.00
2023-04-13T19:46:08.293Z,6.53
2023-04-13T19:48:35.299Z,3.80
2023-04-13T19:51:02.285Z,5.30
2023-04-13T19:53:29.267Z,5.47
2023-04-13T19:55:57.202Z,3.73
2023-04-13T19:58:24.269Z,5.17
2023-04-13T20:00:51.341Z,3.13
2023-04-13T20:03:20.314Z,2.80
2023-04-13T20:05:48.118Z,3.90
2023-04-13T20:08:16.306Z,5.37
2023-04-13T20:10:43.561Z,4.93
2023-04-13T20:13:10.837Z,3.53
2023-04-13T20:15:38.303Z,6.00
2023-04-13T20:18:06.445Z,4.30
2023-04-13T20:20:35.164Z,3.83
2023-04-13T20:23:02.159Z,4.20
2023-04-13T20:25:30.511Z,5.43
2023-04-13T20:27:57.500Z,4.00
2023-04-13T20:30:24.728Z,4.23
2023-04-13T20:32:51.786Z,6.03
2023-04-13T20:35:19.791Z,3.60
2023-04-13T20:37:46.834Z,7.20
2023-04-13T20:40:13.860Z,5.60
2023-04-13T20:42:41.953Z,5.13
2023-04-13T20:45:10.355Z,6.23
2023-04-13T20:47:37.368Z,6.70
2023-04-13T20:50:04.774Z,5.83
2023-04-13T20:52:31.831Z,5.97
2023-04-13T20:54:59.020Z,6.60
2023-04-13T20:57:26.283Z,4.93
2023-04-13T20:59:54.145Z,5.67
2023-04-13T21:02:21.647Z,6.23
2023-04-13T21:04:48.839Z,4.50
2023-04-13T21:07:16.235Z,5.90
2023-04-13T21:09:43.242Z,6.93
2023-04-13T21:12:10.245Z,5.80
2023-04-13T21:14:37.207Z,4.53
2023-04-13T21:17:04.192Z,6.87
2023-04-13T21:19:32.459Z,5.77
2023-04-13T21:21:59.628Z,4.63
2023-04-13T21:24:26.625Z,4.27
2023-04-13T21:26:53.584Z,5.07
2023-04-13T21:29:20.709Z,3.80
2023-04-13T21:31:48.226Z,4.80
2023-04-13T21:34:16.640Z,5.23
2023-04-13T21:39:14.297Z,5.07
2023-04-13T21:41:41.611Z,6.93
2023-04-13T21:44:22.217Z,5.53
2023-04-13T21:46:53.425Z,5.73
2023-04-13T21:49:20.553Z,8.33
2023-04-13T21:51:47.534Z,8.33
2023-04-13T21:54:14.607Z,10.10
2023-04-13T21:56:41.597Z,7.37
2023-04-13T21:59:08.693Z,7.13
2023-04-13T22:01:35.694Z,8.87
2023-04-13T22:04:02.783Z,6.87
2023-04-13T22:06:29.836Z,6.03
2023-04-13T22:08:56.777Z,5.30
2023-04-13T22:11:23.780Z,7.53
2023-04-13T22:13:50.772Z,6.18
2023-04-13T22:16:17.925Z,5.13
2023-04-13T22:18:45.042Z,5.93
2023-04-13T22:21:12.237Z,5.63
2023-04-13T22:23:39.228Z,7.53
2023-04-13T22:26:06.230Z,5.10
2023-04-13T22:28:33.325Z,6.23
2023-04-13T22:31:06.829Z,6.90
2023-04-13T22:33:36.075Z,5.30
2023-04-13T22:36:03.734Z,4.90
2023-04-13T22:38:30.900Z,4.30
2023-04-13T22:40:58.076Z,6.47
2023-04-13T22:43:25.758Z,3.60
2023-04-13T22:45:59.244Z,6.77
2023-04-13T22:48:26.243Z,6.97
2023-04-13T22:50:53.291Z,4.30
2023-04-13T22:53:20.918Z,4.37
2023-04-13T22:55:48.060Z,7.43
2023-04-13T22:58:15.082Z,3.73
2023-04-13T23:00:42.438Z,5.03
2023-04-13T23:03:09.521Z,5.63
2023-04-13T23:05:36.558Z,6.03
2023-04-13T23:08:03.708Z,6.40
2023-04-13T23:10:31.736Z,4.03
2023-04-13T23:12:59.152Z,7.23
2023-04-13T23:15:26.156Z,6.60
2023-04-13T23:17:54.563Z,8.90
2023-04-13T23:20:21.863Z,6.73
2023-04-13T23:22:49.085Z,6.83
2023-04-13T23:25:16.217Z,4.43
2023-04-13T23:27:43.232Z,6.43
2023-04-13T23:30:10.608Z,4.83
2023-04-13T23:32:37.612Z,5.63
2023-04-13T23:35:04.759Z,7.20
2023-04-13T23:37:31.753Z,7.17
2023-04-13T23:39:58.832Z,5.60
2023-04-13T23:42:25.834Z,4.80
2023-04-13T23:44:52.833Z,8.57
2023-04-13T23:47:19.883Z,5.40
2023-04-13T23:49:46.867Z,7.13
2023-04-13T23:52:13.873Z,4.60
2023-04-13T23:54:40.948Z,7.50
2023-04-13T23:57:09.648Z,5.57
2023-04-13T23:59:36.664Z,6.47
